createdAt,value
2023-08-17T00:03:50.302Z,100933.36
2023-08-17T00:08:54.548Z,100931.27
2023-08-17T00:13:59.242Z,100929.08
2023-08-17T00:19:03.484Z,100930.02
2023-08-17T00:24:08.330Z,100935.72
2023-08-17T00:29:12.586Z,100939.52
2023-08-17T00:34:16.918Z,100935.71
2023-08-17T00:39:21.384Z,100939.17
2023-08-17T00:44:25.820Z,100946.45
2023-08-17T00:49:30.527Z,100941.30
2023-08-17T00:54:34.895Z,100945.55
2023-08-17T00:59:40.436Z,100953.25
2023-08-17T01:04:45.029Z,100947.49
2023-08-17T01:09:49.232Z,100944.77
2023-08-17T01:14:56.071Z,100951.86
2023-08-17T01:20:01.761Z,100947.35
2023-08-17T01:25:06.383Z,100951.41
2023-08-17T01:30:14.586Z,100947.92
2023-08-17T01:35:22.754Z,100940.37
2023-08-17T01:40:27.815Z,100939.65
2023-08-17T01:45:31.994Z,100929.99
2023-08-17T01:50:36.293Z,100931.30
2023-08-17T01:55:40.340Z,100937.95
2023-08-17T02:00:45.235Z,100949.54
2023-08-17T02:05:49.301Z,100947.59
2023-08-17T02:10:53.579Z,100938.27
2023-08-17T02:15:59.721Z,100941.28
2023-08-17T02:21:04.445Z,100937.59
2023-08-17T02:26:09.627Z,100939.88
2023-08-17T02:31:14.076Z,100940.64
2023-08-17T02:36:18.365Z,100938.77
2023-08-17T02:41:22.755Z,100932.25
2023-08-17T02:46:26.833Z,100935.15
2023-08-17T02:51:31.135Z,100937.21
2023-08-17T02:56:35.316Z,100940.39
2023-08-17T03:01:40.010Z,100940.81
2023-08-17T03:06:44.238Z,100945.98
2023-08-17T03:11:48.592Z,100945.34
2023-08-17T03:16:52.667Z,100951.30
2023-08-17T03:21:57.780Z,100952.79
2023-08-17T03:27:02.249Z,100957.54
2023-08-17T03:32:06.830Z,100963.29
2023-08-17T03:37:11.362Z,100965.23
2023-08-17T03:42:15.738Z,100973.11
2023-08-17T03:47:20.238Z,100985.55
2023-08-17T03:52:24.532Z,100997.82
2023-08-17T03:57:28.989Z,100997.84
2023-08-17T04:02:33.535Z,100991.02
2023-08-17T04:07:38.122Z,100979.16
2023-08-17T04:12:42.335Z,100973.52
2023-08-17T04:17:46.483Z,100981.16
2023-08-17T04:22:51.349Z,100989.10
2023-08-17T04:27:55.616Z,100992.84
2023-08-17T04:33:00.874Z,100996.75
2023-08-17T04:38:05.734Z,100998.65
2023-08-17T04:43:11.228Z,100993.77
2023-08-17T04:48:16.213Z,100990.26
2023-08-17T04:53:21.002Z,100992.75
2023-08-17T04:58:25.231Z,100996.20
2023-08-17T05:03:33.646Z,100986.39
2023-08-17T05:08:41.346Z,100988.04
2023-08-17T05:13:45.700Z,100994.59
2023-08-17T05:18:50.104Z,100993.02
2023-08-17T05:23:54.677Z,100992.43
2023-08-17T05:28:59.104Z,100989.33
2023-08-17T05:34:03.890Z,100993.16
2023-08-17T05:39:08.873Z,100990.67
2023-08-17T05:44:14.952Z,100992.26
2023-08-17T05:49:19.776Z,100988.48
2023-08-17T05:54:23.908Z,100990.61
2023-08-17T05:59:29.517Z,100988.83
2023-08-17T06:04:34.508Z,100987.50
2023-08-17T06:09:38.537Z,100988.48
2023-08-17T06:14:43.602Z,100986.86
2023-08-17T06:19:48.180Z,100985.84
2023-08-17T06:24:52.461Z,100982.15
2023-08-17T06:29:56.698Z,100992.19
2023-08-17T06:35:00.780Z,100986.83
2023-08-17T06:40:06.626Z,100994.40
2023-08-17T06:45:11.310Z,100995.76
2023-08-17T06:50:15.375Z,101002.30
2023-08-17T06:55:19.698Z,101005.69
2023-08-17T07:00:23.869Z,101010.81
2023-08-17T07:05:27.897Z,101004.70
2023-08-17T07:10:31.888Z,101016.94
2023-08-17T07:15:36.409Z,101014.17
2023-08-17T07:20:40.841Z,101007.99
2023-08-17T07:25:45.474Z,101003.52
2023-08-17T07:30:49.570Z,101002.19
2023-08-17T07:35:55.572Z,101004.14
2023-08-17T07:40:59.747Z,101001.79
2023-08-17T07:46:03.910Z,101002.81
2023-08-17T07:51:08.011Z,101010.54
2023-08-17T07:56:12.335Z,101015.15
2023-08-17T08:01:16.474Z,101020.83
2023-08-17T08:06:21.756Z,101020.17
2023-08-17T08:11:26.220Z,101013.23
2023-08-17T08:16:32.961Z,101016.05
2023-08-17T08:21:37.132Z,101018.15
2023-08-17T08:26:41.297Z,101018.95
2023-08-17T08:31:45.572Z,101017.89
2023-08-17T08:36:49.874Z,101019.30
2023-08-17T08:41:54.011Z,101018.31
2023-08-17T08:46:59.608Z,101010.41
2023-08-17T08:52:05.237Z,101013.27
2023-08-17T08:57:14.267Z,101011.95
2023-08-17T09:02:18.675Z,101013.02
2023-08-17T09:07:23.418Z,101017.67
2023-08-17T09:12:39.652Z,101013.10
2023-08-17T09:17:49.005Z,101015.68
2023-08-17T09:22:54.975Z,101016.40
2023-08-17T09:27:59.371Z,101021.22
2023-08-17T09:33:04.745Z,101019.66
2023-08-17T09:38:10.029Z,101019.45
2023-08-17T09:43:14.793Z,101016.84
2023-08-17T09:48:19.592Z,101013.02
2023-08-17T09:53:24.288Z,101013.11
2023-08-17T09:58:31.272Z,101013.40
2023-08-17T10:03:36.861Z,101008.82
2023-08-17T10:08:44.468Z,101007.36
2023-08-17T10:13:53.049Z,101012.20
2023-08-17T10:19:02.970Z,101004.17
2023-08-17T10:24:08.586Z,101005.40
2023-08-17T10:29:16.505Z,101000.04
2023-08-17T10:34:21.817Z,101000.35
2023-08-17T10:39:29.147Z,100997.27
2023-08-17T10:44:44.900Z,100996.55
2023-08-17T10:49:51.010Z,100990.88
2023-08-17T10:54:56.509Z,100986.77
2023-08-17T11:00:29.110Z,100984.00
2023-08-17T11:05:41.797Z,100982.73
2023-08-17T11:10:57.816Z,100984.70
2023-08-17T11:16:04.015Z,100979.18
2023-08-17T11:21:11.349Z,100972.44
2023-08-17T11:26:18.261Z,100961.34
2023-08-17T11:31:22.647Z,100967.61
2023-08-17T11:36:26.905Z,100968.13
2023-08-17T11:41:31.278Z,100968.82
2023-08-17T11:46:35.585Z,100965.81
2023-08-17T11:51:43.313Z,100958.73
2023-08-17T11:56:47.853Z,100958.70
2023-08-17T12:01:52.451Z,100958.98
2023-08-17T12:06:56.996Z,100955.39
2023-08-17T12:12:01.762Z,100951.33
2023-08-17T12:17:06.117Z,100954.72
2023-08-17T12:22:10.502Z,100950.09
2023-08-17T12:27:14.751Z,100950.71
2023-08-17T12:32:20.770Z,100948.34
2023-08-17T12:37:25.008Z,100948.61
2023-08-17T12:42:29.530Z,100941.87
2023-08-17T12:47:35.527Z,100942.67
2023-08-17T12:52:40.005Z,100944.27
2023-08-17T12:57:44.366Z,100940.16
2023-08-17T13:02:52.531Z,100942.30
2023-08-17T13:07:56.927Z,100937.72
2023-08-17T13:13:01.179Z,100934.30
2023-08-17T13:18:06.024Z,100925.98
2023-08-17T13:23:10.622Z,100929.20
2023-08-17T13:28:14.909Z,100926.17
2023-08-17T13:33:19.222Z,100923.48
2023-08-17T13:38:23.478Z,100924.63
2023-08-17T13:43:27.776Z,100919.08
2023-08-17T13:48:31.992Z,100913.02
2023-08-17T13:53:36.078Z,100912.42
2023-08-17T13:58:40.205Z,100911.75
2023-08-17T14:03:44.285Z,100909.33
2023-08-17T14:08:48.512Z,100903.60
2023-08-17T14:13:52.632Z,100902.01
2023-08-17T14:18:56.841Z,100894.66
2023-08-17T14:24:00.999Z,100892.42
2023-08-17T14:29:05.195Z,100884.85
2023-08-17T14:34:09.211Z,100879.57
2023-08-17T14:39:13.760Z,100876.14
2023-08-17T14:44:19.065Z,100874.79
2023-08-17T14:49:26.584Z,100874.05
2023-08-17T14:54:33.353Z,100872.48
2023-08-17T14:59:38.247Z,100870.25
2023-08-17T15:04:42.331Z,100875.14
2023-08-17T15:09:46.907Z,100875.27
2023-08-17T15:14:51.048Z,100878.71
2023-08-17T15:19:55.122Z,100881.29
2023-08-17T15:24:59.171Z,100876.06
2023-08-17T15:30:03.445Z,100868.50
2023-08-17T15:35:08.616Z,100862.16
2023-08-17T15:40:12.971Z,100862.62
2023-08-17T15:45:19.170Z,100861.77
2023-08-17T15:50:23.290Z,100864.65
2023-08-17T15:55:27.438Z,100869.88
2023-08-17T16:00:31.554Z,100877.39
2023-08-17T16:05:35.803Z,100885.64
2023-08-17T16:10:40.001Z,100899.20
2023-08-17T16:15:44.246Z,100904.85
2023-08-17T16:20:48.872Z,100913.16
2023-08-17T16:34:09.105Z,100914.30
2023-08-17T16:39:14.025Z,100919.39
2023-08-17T16:44:18.890Z,100918.63
2023-08-17T16:49:29.733Z,100918.69
2023-08-17T16:54:35.633Z,100923.95
2023-08-17T16:59:40.183Z,100926.22
2023-08-17T17:04:44.558Z,100927.14
2023-08-17T17:09:49.804Z,100924.00
2023-08-17T17:14:54.822Z,100918.39
2023-08-17T17:19:58.968Z,100920.64
2023-08-17T17:25:05.235Z,100922.17
2023-08-17T17:30:10.674Z,100928.90
2023-08-17T17:35:14.768Z,100925.84
2023-08-17T17:40:18.924Z,100924.23
2023-08-17T17:46:52.211Z,100916.20
2023-08-17T17:51:57.659Z,100909.19
2023-08-17T17:57:03.437Z,100909.92
2023-08-17T18:02:09.643Z,100912.06
2023-08-17T18:07:15.120Z,100907.73
2023-08-17T18:12:20.823Z,100907.42
2023-08-17T18:17:26.603Z,100913.46
2023-08-17T18:22:32.407Z,100918.72
2023-08-17T18:27:40.663Z,100918.77
2023-08-17T18:32:46.576Z,100923.85
2023-08-17T18:37:52.314Z,100924.66
2023-08-17T18:42:58.326Z,100923.86
2023-08-17T18:48:04.335Z,100923.88
2023-08-17T18:53:10.639Z,100924.38
2023-08-17T18:58:19.369Z,100919.63
2023-08-17T19:03:27.619Z,100921.21
2023-08-17T19:08:33.312Z,100924.34
2023-08-17T19:13:38.781Z,100919.66
2023-08-17T19:18:44.360Z,100914.87
2023-08-17T19:23:50.175Z,100916.42
2023-08-17T19:28:55.694Z,100916.81
2023-08-17T19:34:01.267Z,100921.83
2023-08-17T19:39:08.698Z,100920.31
2023-08-17T19:44:14.473Z,100916.31
2023-08-17T19:49:21.474Z,100917.27
2023-08-17T19:54:27.092Z,100915.89
2023-08-17T19:59:32.852Z,100921.09
2023-08-17T20:04:41.362Z,100930.58
2023-08-17T20:09:46.994Z,100932.16
2023-08-17T20:14:53.076Z,100936.66
2023-08-17T20:19:58.983Z,100943.20
2023-08-17T20:25:06.189Z,100947.98
2023-08-17T20:30:13.429Z,100950.91
2023-08-17T20:35:19.563Z,100950.32
2023-08-17T20:40:25.151Z,100957.64
2023-08-17T20:45:30.692Z,100958.86
2023-08-17T20:50:39.213Z,100967.91
2023-08-17T20:55:45.486Z,100970.39
2023-08-17T21:00:51.541Z,100967.20
2023-08-17T21:06:04.319Z,100961.19
2023-08-17T21:11:10.146Z,100966.50
2023-08-17T21:16:15.753Z,100964.63
2023-08-17T21:21:21.373Z,100971.70
2023-08-17T21:26:26.873Z,100962.92
2023-08-17T21:31:34.150Z,100957.80
2023-08-17T21:36:39.998Z,100958.96
2023-08-17T21:41:45.565Z,100961.80
2023-08-17T21:46:51.155Z,100961.88
2023-08-17T21:51:56.862Z,100956.97
2023-08-17T21:57:02.721Z,100959.92
2023-08-17T22:02:09.880Z,100961.11
2023-08-17T22:07:16.587Z,100959.67
2023-08-17T22:12:22.429Z,100959.20
2023-08-17T22:17:28.390Z,100963.67
2023-08-17T22:22:34.716Z,100959.52
2023-08-17T22:27:40.278Z,100952.57
2023-08-17T22:32:46.038Z,100960.02
2023-08-17T22:37:52.141Z,100959.01
2023-08-17T22:42:58.351Z,100969.96
2023-08-17T22:48:04.481Z,100976.30
2023-08-17T22:53:10.526Z,100988.48
2023-08-17T22:58:16.250Z,101000.67
2023-08-17T23:03:23.084Z,101005.77
2023-08-17T23:08:30.299Z,100997.74
2023-08-17T23:13:36.026Z,100996.39
2023-08-17T23:18:41.846Z,100996.60
2023-08-17T23:23:47.328Z,101005.52
2023-08-17T23:28:52.933Z,101015.27
2023-08-17T23:33:59.012Z,100999.08
2023-08-17T23:39:05.075Z,100998.94
2023-08-17T23:44:18.882Z,100991.54
2023-08-17T23:49:24.542Z,100975.79
2023-08-17T23:54:39.208Z,100973.11
2023-08-17T23:59:45.155Z,100978.23
